Time;durP1;ratioP1;P1;durP2;ratioP2;P2;SDS_P1;SDS_P2;PMS_P1;PMS_P2;Temp;Humidity;BMP_temperature;BMP_pressure;BME280_temperature;BME280_humidity;BME280_pressure;Samples;Min_cycle;Max_cycle;Signal;HPM_P1;HPM_P2
2021/03/24 17:17:09;;;;;;;2.50;1.20;;;;;;;22.32;60.55;99813.19;1820461;77;22878;-29
2021/03/24 17:20:01;;;;;;;1.77;1.22;;;;;;;22.81;59.23;99818.63;1708318;81;21603;-21
2021/03/24 17:22:31;;;;;;;1.92;1.30;;;;;;;23.19;57.75;99822.33;1751577;80;22090;-14
2021/03/24 17:25:21;;;;;;;6.60;1.20;;;;;;;23.46;56.62;99822.94;1746157;80;21670;-14
2021/03/24 17:27:50;;;;;;;4.50;1.70;;;;;;;23.61;55.81;99821.99;1753240;81;21602;-15
2021/03/24 17:30:21;;;;;;;2.42;1.05;;;;;;;23.75;55.11;99825.53;1747762;80;21733;-15
2021/03/24 17:33:03;;;;;;;2.10;1.20;;;;;;;23.80;54.59;99810.37;1749286;80;21727;-14
2021/03/24 17:35:36;;;;;;;2.58;1.85;;;;;;;23.96;54.10;99824.03;1736973;80;22357;-14
2021/03/24 17:38:30;;;;;;;2.17;1.17;;;;;;;24.02;53.68;99818.06;1716163;81;21628;-14
2021/03/24 17:41:20;;;;;;;2.72;1.55;;;;;;;24.14;53.32;99825.42;1724558;81;21608;-13
2021/03/24 17:44:10;;;;;;;6.22;1.47;;;;;;;24.19;52.93;99821.80;1723758;81;21074;-14
2021/03/24 17:46:58;;;;;;;3.92;1.80;;;;;;;24.22;52.57;99827.36;1734644;81;21627;-14
2021/03/24 17:49:42;;;;;;;4.87;1.62;;;;;;;24.24;52.35;99824.89;1671241;83;21583;-15
2021/03/24 17:52:35;;;;;;;3.72;1.20;;;;;;;24.31;51.88;99825.13;1804145;78;23712;-13
2021/03/24 17:55:41;;;;;;;7.00;1.42;;;;;;;24.29;52.02;99828.46;1784426;79;21195;-13
2021/03/24 17:58:33;;;;;;;1.50;1.07;;;;;;;24.32;51.88;99827.30;1725234;81;22058;-14
2021/03/24 18:01:17;;;;;;;2.40;1.37;;;;;;;24.32;51.76;99829.99;1737240;80;21595;-14
2021/03/24 18:04:08;;;;;;;1.75;1.30;;;;;;;24.33;51.70;99827.67;1753626;80;21239;-14
2021/03/24 18:06:42;;;;;;;3.55;1.40;;;;;;;24.34;51.64;99831.55;1725291;80;21643;-13
2021/03/24 18:09:31;;;;;;;3.62;1.77;;;;;;;24.35;51.59;99831.05;1743939;80;21544;-13
2021/03/24 18:12:08;;;;;;;2.75;1.40;;;;;;;24.37;51.63;99827.71;1740934;80;21636;-13
2021/03/24 18:14:43;;;;;;;2.58;1.60;;;;;;;24.41;51.61;99835.34;1749536;80;21234;-13
2021/03/24 18:17:19;;;;;;;3.52;1.35;;;;;;;24.44;51.62;99840.90;1740887;79;21588;-15
2021/03/24 18:20:02;;;;;;;3.27;1.22;;;;;;;24.46;51.58;99847.80;1741122;80;21497;-12
2021/03/24 18:22:40;;;;;;;1.90;1.20;;;;;;;24.48;51.52;99836.91;1750478;80;21653;-13
2021/03/24 18:25:19;;;;;;;3.65;1.32;;;;;;;24.44;51.52;99833.67;1745097;80;22015;-24
2021/03/24 18:28:18;;;;;;;4.00;1.10;;;;;;;24.53;51.54;99844.56;1749086;80;21692;-12
2021/03/24 18:31:06;;;;;;;2.15;1.20;;;;;;;24.51;51.53;99834.44;1748740;79;22522;-14
2021/03/24 18:33:45;;;;;;;2.37;1.52;;;;;;;24.54;51.52;99838.18;1742278;80;21156;-12
2021/03/24 18:36:24;;;;;;;3.25;1.22;;;;;;;24.56;51.48;99842.91;1738408;80;21627;-13
2021/03/24 18:38:56;;;;;;;3.22;1.40;;;;;;;24.56;51.46;99837.02;1748266;80;22075;-12
2021/03/24 18:41:24;;;;;;;2.05;1.30;;;;;;;24.57;51.43;99840.58;1736820;81;22187;-12
2021/03/24 18:43:57;;;;;;;1.90;1.42;;;;;;;24.58;51.44;99843.13;1733271;81;21156;-13
2021/03/24 18:46:25;;;;;;;2.00;1.30;;;;;;;24.60;51.43;99841.13;1708663;82;21706;-14
2021/03/24 18:48:56;;;;;;;2.25;1.10;;;;;;;24.60;51.43;99834.41;1741504;80;21188;-14
2021/03/24 18:51:32;;;;;;;2.58;1.15;;;;;;;24.61;51.38;99835.24;1741965;79;21901;-13
2021/03/24 18:54:11;;;;;;;4.55;1.50;;;;;;;24.63;51.30;99835.93;1767434;77;21516;-14
2021/03/24 18:56:48;;;;;;;4.47;1.30;;;;;;;24.65;51.23;99846.03;1755525;78;21659;-12
2021/03/24 18:59:22;;;;;;;3.97;1.23;;;;;;;24.65;51.21;99841.49;1778855;77;21091;-12
2021/03/24 19:01:50;;;;;;;1.75;1.27;;;;;;;24.65;51.16;99841.49;1778052;79;21528;-16
2021/03/24 19:04:36;;;;;;;9.15;1.52;;;;;;;24.61;51.11;99823.14;1783075;79;22067;-17
2021/03/24 19:07:09;;;;;;;1.67;1.10;;;;;;;24.67;51.07;99834.12;1781684;79;21576;-14
2021/03/24 19:09:44;;;;;;;1.98;1.45;;;;;;;24.68;51.01;99829.10;1780552;77;21597;-21
2021/03/24 19:12:33;;;;;;;2.00;1.15;;;;;;;24.70;50.98;99830.81;1782942;78;21523;-13
2021/03/24 19:15:11;;;;;;;1.50;1.25;;;;;;;24.65;50.97;99821.84;1781946;77;21682;-15
2021/03/24 19:18:00;;;;;;;1.17;1.02;;;;;;;24.70;50.96;99830.81;1782511;77;21875;-18
2021/03/24 19:20:35;;;;;;;2.77;1.50;;;;;;;24.66;50.96;99825.72;1777495;79;21694;-17
2021/03/24 19:23:15;;;;;;;1.77;1.32;;;;;;;24.69;50.97;99828.59;1749934;79;21642;-20
2021/03/24 19:25:45;;;;;;;2.62;1.37;;;;;;;24.67;50.88;99834.63;1712865;81;21228;-24
2021/03/24 19:28:19;;;;;;;2.92;1.40;;;;;;;24.67;50.90;99836.80;1727407;81;21655;-14
2021/03/24 19:31:09;;;;;;;6.08;1.25;;;;;;;24.68;50.93;99834.98;1785135;77;21913;-14
2021/03/24 19:33:46;;;;;;;3.65;1.30;;;;;;;24.66;50.94;99835.13;1783334;77;21627;-15
2021/03/24 19:36:27;;;;;;;1.90;1.22;;;;;;;24.67;50.98;99838.66;1777281;78;21714;-26
2021/03/24 19:39:19;;;;;;;;;;;;;;;24.66;51.03;99841.85;1786492;77;21625;-14
2021/03/24 19:41:49;;;;;;;2.55;1.02;;;;;;;24.61;50.95;99825.83;1768506;79;20492;-12
2021/03/24 19:44:31;;;;;;;1.57;1.30;;;;;;;24.61;51.11;99832.05;1725298;82;22042;-13
2021/03/24 19:47:23;;;;;;;2.52;1.20;;;;;;;24.61;51.11;99832.05;1778383;79;21556;-16
2021/03/24 19:50:00;;;;;;;4.53;1.50;;;;;;;24.60;51.15;99825.47;1791022;77;21556;-14
2021/03/24 19:52:28;;;;;;;2.33;1.10;;;;;;;24.53;51.19;99819.88;1770887;78;21723;-18
2021/03/24 19:54:56;;;;;;;1.42;1.10;;;;;;;24.54;51.23;99819.37;1764554;79;21537;-12
2021/03/24 19:57:34;;;;;;;3.67;1.30;;;;;;;24.55;51.28;99827.80;1773153;79;22128;-12
2021/03/24 20:00:38;;;;;;;2.62;1.50;;;;;;;24.53;51.33;99826.59;1767968;78;21261;-14
2021/03/24 20:03:11;;;;;;;3.30;1.40;;;;;;;24.51;51.37;99817.80;1775406;78;21580;-14
2021/03/24 20:05:47;;;;;;;1.37;1.20;;;;;;;24.51;51.41;99819.66;1766382;78;21494;-17
2021/03/24 20:08:52;;;;;;;1.62;1.17;;;;;;;24.49;51.50;99815.77;1774327;79;21607;-14
2021/03/24 20:11:20;;;;;;;1.75;1.27;;;;;;;24.49;51.55;99817.95;1774014;79;22105;-18
2021/03/24 20:13:56;;;;;;;1.90;1.10;;;;;;;24.47;51.58;99811.05;1700479;82;21710;-16
2021/03/24 20:16:29;;;;;;;3.65;1.52;;;;;;;24.47;51.71;99811.05;1774339;78;21683;-13
2021/03/24 20:18:58;;;;;;;1.67;1.00;;;;;;;24.46;51.81;99812.87;1769782;78;21611;-13
2021/03/24 20:21:32;;;;;;;2.35;1.20;;;;;;;24.40;51.84;99805.42;1768771;78;21147;-14
2021/03/24 20:24:04;;;;;;;0.90;0.90;;;;;;;24.45;51.89;99811.19;1773190;78;21918;-14
2021/03/24 20:26:33;;;;;;;1.35;1.22;;;;;;;24.47;52.04;99807.86;1772861;78;21608;-14
2021/03/24 20:29:03;;;;;;;3.90;1.10;;;;;;;24.51;52.16;99808.40;1774764;79;21601;-14
2021/03/24 20:31:38;;;;;;;1.50;1.12;;;;;;;24.54;52.18;99813.48;1734646;79;21660;-15
2021/03/24 20:34:29;;;;;;;1.45;1.07;;;;;;;24.54;52.11;99805.93;1779504;78;21572;-15
2021/03/24 20:37:05;;;;;;;1.10;1.00;;;;;;;24.55;52.08;99809.81;1783534;78;22093;-14
2021/03/24 20:39:38;;;;;;;2.37;1.10;;;;;;;24.57;52.04;99801.61;1765314;79;21258;-14
2021/03/24 20:42:20;;;;;;;2.20;1.25;;;;;;;24.60;52.03;99806.66;1777930;78;21663;-23
2021/03/24 20:45:15;;;;;;;2.10;1.07;;;;;;;24.62;52.00;99806.00;1780167;78;21554;-15
2021/03/24 20:47:43;;;;;;;5.62;1.25;;;;;;;24.61;51.97;99792.23;1765510;79;21151;-17
2021/03/24 20:50:36;;;;;;;2.37;1.30;;;;;;;24.64;51.88;99802.19;1770144;78;21627;-17
2021/03/24 20:53:05;;;;;;;1.85;1.05;;;;;;;24.66;51.89;99803.37;1776806;77;21540;-17
2021/03/24 20:55:33;;;;;;;3.25;1.10;;;;;;;24.68;51.80;99802.73;1766587;79;21222;-15
2021/03/24 20:58:01;;;;;;;2.10;1.20;;;;;;;24.68;51.79;99804.91;1766715;77;21647;-14
2021/03/24 21:00:35;;;;;;;2.62;1.10;;;;;;;24.72;51.83;99801.42;1774305;77;21616;-14
2021/03/24 21:03:06;;;;;;;1.35;1.00;;;;;;;24.77;51.74;99801.81;1769415;79;22071;-14
2021/03/24 21:05:34;;;;;;;2.90;1.10;;;;;;;24.80;51.66;99801.99;1776088;78;21660;-14
2021/03/24 21:08:05;;;;;;;1.30;1.20;;;;;;;24.80;51.60;99805.52;1719128;81;21579;-14
2021/03/24 21:10:38;;;;;;;2.52;1.30;;;;;;;24.80;51.56;99800.65;1690571;82;21207;-18
2021/03/24 21:13:08;;;;;;;2.42;1.20;;;;;;;24.80;51.49;99808.72;1713261;82;21612;-14
2021/03/24 21:15:38;;;;;;;1.00;1.00;;;;;;;24.81;51.49;99807.73;1706372;80;21921;-14
2021/03/24 21:18:08;;;;;;;0.90;0.80;;;;;;;24.81;51.45;99810.42;1705526;82;21596;-22
2021/03/24 21:20:39;;;;;;;0.98;0.98;;;;;;;24.80;51.43;99812.23;1720534;80;21151;-13
2021/03/24 21:23:08;;;;;;;2.05;1.22;;;;;;;24.80;51.42;99809.55;1708141;81;21115;-14
2021/03/24 21:25:39;;;;;;;1.30;1.00;;;;;;;24.75;51.39;99797.56;1700994;80;21581;-14
2021/03/24 21:28:07;;;;;;;4.22;1.27;;;;;;;24.81;51.32;99809.08;1708421;82;22040;-14
2021/03/24 21:30:39;;;;;;;1.85;1.25;;;;;;;24.80;51.31;99810.89;1707370;82;21612;-14
2021/03/24 21:33:07;;;;;;;1.70;0.90;;;;;;;24.81;51.30;99808.56;1714121;80;21674;-14
2021/03/24 21:35:36;;;;;;;1.57;1.05;;;;;;;24.81;51.27;99802.35;1716191;82;21623;-14
2021/03/24 21:38:07;;;;;;;2.02;1.10;;;;;;;24.81;51.27;99803.19;1713012;82;21678;-13
2021/03/24 21:40:40;;;;;;;1.25;0.88;;;;;;;24.80;51.26;99802.83;1706658;82;22156;-14
2021/03/24 21:43:08;;;;;;;1.42;1.30;;;;;;;24.80;51.26;99801.48;1710333;82;21605;-14
2021/03/24 21:45:37;;;;;;;1.02;0.95;;;;;;;24.82;51.23;99798.14;1706781;82;21521;-15
2021/03/24 21:48:30;;;;;;;1.00;0.90;;;;;;;24.83;51.22;99799.01;1707744;82;21552;-15
2021/03/24 21:51:02;;;;;;;3.25;0.93;;;;;;;24.82;51.19;99798.65;1711848;81;21647;-15
2021/03/24 21:53:33;;;;;;;1.32;1.02;;;;;;;24.82;51.18;99799.99;1704941;81;21884;-14
2021/03/24 21:56:03;;;;;;;1.52;1.02;;;;;;;24.82;51.19;99799.99;1718773;82;21659;-15
2021/03/24 21:58:40;;;;;;;1.87;1.15;;;;;;;24.82;51.21;99800.83;1704388;80;21576;-13
2021/03/24 22:01:52;;;;;;;3.25;1.25;;;;;;;24.81;51.18;99796.47;1690298;82;21671;-14
2021/03/24 22:04:33;;;;;;;1.55;1.32;;;;;;;24.85;51.10;99801.88;1839917;74;28212;-13
2021/03/24 22:07:03;;;;;;;1.60;1.00;;;;;;;24.96;50.98;99801.28;1827466;75;21649;-17
2021/03/24 22:09:33;;;;;;;1.17;1.07;;;;;;;24.99;50.91;99796.44;1835244;75;21625;-14
2021/03/24 22:12:01;;;;;;;1.25;1.00;;;;;;;24.99;50.92;99791.57;1826754;75;21619;-17
2021/03/24 22:14:38;;;;;;;5.70;1.10;;;;;;;24.98;50.88;99793.94;1776908;78;21198;-13
2021/03/24 22:17:41;;;;;;;1.75;1.20;;;;;;;24.96;50.86;99795.42;1786899;77;21532;-17
2021/03/24 22:20:19;;;;;;;1.95;1.22;;;;;;;24.95;50.87;99799.61;1785857;78;21197;-15
2021/03/24 22:22:47;;;;;;;2.22;1.55;;;;;;;24.95;50.82;99797.76;1793582;78;22060;-14
2021/03/24 22:25:17;;;;;;;3.65;1.40;;;;;;;24.95;50.82;99792.38;1789540;77;21142;-27
2021/03/24 22:28:08;;;;;;;1.42;1.00;;;;;;;25.01;50.75;99782.84;1788063;78;21764;-23
2021/03/24 22:31:06;;;;;;;5.30;1.90;;;;;;;25.08;50.50;99774.50;1786190;78;21594;-26
2021/03/24 22:34:05;;;;;;;1.98;1.32;;;;;;;25.32;50.15;99785.15;1802193;77;21628;-26
2021/03/24 22:36:38;;;;;;;2.05;1.30;;;;;;;25.42;49.89;99781.84;1787227;77;21668;-28
2021/03/24 22:39:38;;;;;;;3.77;1.20;;;;;;;25.48;49.66;99784.41;1794722;77;21625;-26
2021/03/24 22:42:08;;;;;;;1.87;1.12;;;;;;;25.51;49.56;99781.41;1787290;78;21877;-25
2021/03/24 22:44:37;;;;;;;4.53;1.15;;;;;;;25.55;49.42;99788.16;1782337;78;21628;-25
2021/03/24 22:47:59;;;;;;;5.72;1.50;;;;;;;25.57;49.34;99783.45;1788336;78;21634;-26
2021/03/24 22:50:57;;;;;;;3.70;1.22;;;;;;;25.58;49.27;99783.30;1703035;80;21916;-26
2021/03/24 22:54:16;;;;;;;3.70;1.10;;;;;;;25.62;48.75;99783.83;1859496;74;23143;-24
2021/03/24 22:57:08;;;;;;;3.72;1.40;;;;;;;25.60;49.14;99786.67;1834088;75;21567;-30
2021/03/24 22:59:37;;;;;;;1.57;1.30;;;;;;;25.59;49.05;99782.28;1836744;75;21599;-26
2021/03/24 23:02:12;;;;;;;1.50;1.20;;;;;;;25.59;49.01;99785.48;1835345;75;21774;-26
2021/03/24 23:04:49;;;;;;;2.25;1.10;;;;;;;25.61;48.97;99788.86;1829200;76;21583;-30
2021/03/24 23:07:24;;;;;;;1.37;1.07;;;;;;;25.58;48.92;99777.92;1819882;75;21109;-26
2021/03/24 23:09:55;;;;;;;3.87;1.32;;;;;;;25.61;48.87;99782.13;1823366;75;21598;-26
2021/03/24 23:12:44;;;;;;;4.62;1.30;;;;;;;25.60;48.82;99783.98;1825277;75;22023;-26
2021/03/24 23:15:18;;;;;;;2.05;1.22;;;;;;;25.61;48.80;99778.92;1825778;75;21622;-28
2021/03/24 23:18:00;;;;;;;2.58;1.25;;;;;;;25.61;48.74;99786.16;1806482;77;21614;-26
2021/03/24 23:20:40;;;;;;;2.10;1.27;;;;;;;25.61;48.67;99782.96;1794129;75;21572;-30
2021/03/24 23:23:08;;;;;;;2.20;1.22;;;;;;;25.56;48.61;99770.50;1828894;75;21619;-26
2021/03/24 23:25:38;;;;;;;1.82;1.30;;;;;;;25.61;48.57;99782.96;1826097;75;22136;-26
2021/03/24 23:28:11;;;;;;;1.62;1.17;;;;;;;25.62;48.56;99776.59;1830300;76;21154;-26
2021/03/24 23:30:47;;;;;;;2.50;1.30;;;;;;;25.62;48.52;99773.89;1786650;78;21174;-26
2021/03/24 23:33:16;;;;;;;1.95;1.52;;;;;;;25.63;48.49;99770.69;1776345;78;21621;-31
2021/03/24 23:35:47;;;;;;;2.20;1.30;;;;;;;25.61;48.43;99764.12;1791657;77;21629;-27
2021/03/24 23:38:15;;;;;;;;;;;;;;;25.61;48.39;99766.81;1794352;77;22057;-26
2021/03/24 23:40:43;;;;;;;2.70;1.30;;;;;;;25.61;47.85;99769.50;1782148;77;20355;-26
2021/03/24 23:43:12;;;;;;;8.13;1.75;;;;;;;25.60;48.34;99760.27;1762603;78;21670;-26
2021/03/24 23:45:43;;;;;;;1.90;1.50;;;;;;;25.59;48.28;99760.74;1782964;77;21138;-26
2021/03/24 23:48:17;;;;;;;5.12;1.98;;;;;;;25.60;48.18;99751.67;1794869;77;21603;-26
2021/03/24 23:50:48;;;;;;;4.28;1.32;;;;;;;25.60;48.16;99750.84;1786763;77;22021;-24
2021/03/24 23:53:18;;;;;;;3.45;1.90;;;;;;;25.58;48.12;99752.34;1789882;77;21564;-24
2021/03/24 23:56:01;;;;;;;3.15;1.60;;;;;;;25.59;48.09;99754.02;1795722;77;23150;-25
2021/03/24 23:58:30;;;;;;;2.98;1.50;;;;;;;25.59;48.05;99746.45;1794095;78;21227;-26
